AAL101 EGLL-KJFK
Flight info
| Callsign | AAL101 |
|---|---|
| Flight time | N/A |
| Altitude | 34000 |
| Route | CPT L9 DIDZA/N0475F340 L9 BIBPE DCT BUCGO DCT FELCA DCT NICXI DCT BAKUR DCT NEBIN/M083F360 DCT 5330N02000W 5230N03000W 51N040W 4930N05000W DCT IBERG/N0473F380 N376B MIILS DCT HULTN DCT ENE PARCH4 |
| Aircraft | B77W/H-SDE1E2E3FGHIJ2J3J4J5M1RWXY/LB1D1 |
Departure
| Time | 2026-05-06 21:35 |
|---|---|
| Airport | London Heathrow Airport (EGLL) |
Arrival
| Time | N/A |
|---|---|
| Airport | John F. Kennedy International Airport (KJFK) |
| Time | Latitude | Longitude | Altitude | Speed | Heading |
|---|---|---|---|---|---|
| 2026-05-06 21:08 | 51.47097 | -0.46416 | 98 ft | 0 kts | 235° |
| 2026-05-06 21:25 | 51.47102 | -0.46404 | 97 ft | 2 kts | 235° |
| 2026-05-06 21:25 | 51.47111 | -0.46385 | 97 ft | 2 kts | 236° |
| 2026-05-06 21:25 | 51.47118 | -0.46364 | 97 ft | 2 kts | 253° |
| 2026-05-06 21:25 | 51.47121 | -0.46340 | 97 ft | 2 kts | 270° |
| 2026-05-06 21:26 | 51.47119 | -0.46316 | 97 ft | 2 kts | 285° |
| 2026-05-06 21:26 | 51.47114 | -0.46294 | 97 ft | 2 kts | 301° |
| 2026-05-06 21:26 | 51.47105 | -0.46275 | 97 ft | 2 kts | 317° |
| 2026-05-06 21:26 | 51.47098 | -0.46265 | 97 ft | 0 kts | 326° |
| 2026-05-06 21:27 | 51.47096 | -0.46263 | 97 ft | 0 kts | 327° |
| 2026-05-06 21:28 | 51.47100 | -0.46267 | 97 ft | 3 kts | 326° |
| 2026-05-06 21:28 | 51.47135 | -0.46307 | 97 ft | 7 kts | 326° |
| 2026-05-06 21:28 | 51.47187 | -0.46364 | 97 ft | 10 kts | 326° |
| 2026-05-06 21:29 | 51.47230 | -0.46444 | 97 ft | 9 kts | 286° |
| 2026-05-06 21:29 | 51.47235 | -0.46549 | 97 ft | 11 kts | 270° |
| 2026-05-06 21:29 | 51.47226 | -0.46681 | 97 ft | 9 kts | 239° |
| 2026-05-06 21:29 | 51.47164 | -0.46715 | 97 ft | 10 kts | 181° |
| 2026-05-06 21:30 | 51.47078 | -0.46730 | 97 ft | 11 kts | 206° |
| 2026-05-06 21:30 | 51.47040 | -0.46831 | 97 ft | 11 kts | 227° |
| 2026-05-06 21:30 | 51.46948 | -0.46860 | 97 ft | 16 kts | 180° |
| 2026-05-06 21:30 | 51.46839 | -0.46859 | 97 ft | 13 kts | 180° |
| 2026-05-06 21:31 | 51.46752 | -0.46859 | 97 ft | 11 kts | 181° |
| 2026-05-06 21:31 | 51.46675 | -0.46885 | 97 ft | 10 kts | 213° |
| 2026-05-06 21:31 | 51.46657 | -0.46965 | 97 ft | 7 kts | 269° |
| 2026-05-06 21:31 | 51.46656 | -0.47085 | 97 ft | 11 kts | 269° |
| 2026-05-06 21:32 | 51.46656 | -0.47230 | 97 ft | 14 kts | 269° |
| 2026-05-06 21:32 | 51.46655 | -0.47582 | 97 ft | 17 kts | 270° |
| 2026-05-06 21:32 | 51.46656 | -0.47780 | 97 ft | 18 kts | 270° |
| 2026-05-06 21:33 | 51.46653 | -0.47977 | 97 ft | 17 kts | 270° |
| 2026-05-06 21:33 | 51.46653 | -0.48160 | 97 ft | 15 kts | 270° |
| 2026-05-06 21:33 | 51.46653 | -0.48322 | 97 ft | 14 kts | 271° |
| 2026-05-06 21:33 | 51.46627 | -0.48449 | 97 ft | 10 kts | 205° |
| 2026-05-06 21:34 | 51.46555 | -0.48464 | 97 ft | 10 kts | 182° |
| 2026-05-06 21:34 | 51.46492 | -0.48450 | 97 ft | 8 kts | 141° |
| 2026-05-06 21:34 | 51.46480 | -0.48350 | 97 ft | 21 kts | 91° |
| 2026-05-06 21:34 | 51.46480 | -0.47659 | 97 ft | 101 kts | 90° |
| 2026-05-06 21:35 | 51.46487 | -0.46130 | 106 ft | 169 kts | 89° |
| 2026-05-06 21:35 | 51.46501 | -0.44154 | 746 ft | 183 kts | 88° |
| 2026-05-06 21:35 | 51.46512 | -0.42121 | 1635 ft | 187 kts | 93° |
| 2026-05-06 21:35 | 51.46104 | -0.40081 | 2140 ft | 205 kts | 119° |
| 2026-05-06 21:36 | 51.45083 | -0.38353 | 2632 ft | 226 kts | 146° |
| 2026-05-06 21:36 | 51.43550 | -0.37497 | 3145 ft | 247 kts | 176° |
| 2026-05-06 21:36 | 51.41816 | -0.38042 | 3694 ft | 265 kts | 210° |
| 2026-05-06 21:36 | 51.40495 | -0.40061 | 4523 ft | 269 kts | 239° |
| 2026-05-06 21:37 | 51.39930 | -0.42885 | 5377 ft | 271 kts | 270° |
| 2026-05-06 21:37 | 51.40114 | -0.45855 | 6282 ft | 272 kts | 282° |
| 2026-05-06 21:37 | 51.40485 | -0.48826 | 7186 ft | 274 kts | 283° |
| 2026-05-06 21:37 | 51.40871 | -0.51850 | 8087 ft | 277 kts | 283° |
| 2026-05-06 21:38 | 51.41246 | -0.54853 | 8964 ft | 279 kts | 283° |
| 2026-05-06 21:38 | 51.41626 | -0.57937 | 9838 ft | 281 kts | 283° |
| 2026-05-06 21:38 | 51.42009 | -0.61064 | 10554 ft | 290 kts | 283° |
| 2026-05-06 21:38 | 51.42409 | -0.64329 | 11036 ft | 306 kts | 283° |
| 2026-05-06 21:39 | 51.42828 | -0.67763 | 11527 ft | 322 kts | 282° |
| 2026-05-06 21:39 | 51.43276 | -0.71443 | 12058 ft | 338 kts | 282° |